createdAt,value
2022-09-24T16:26:34.667Z,39.20
2022-09-24T16:29:05.017Z,41.88
2022-09-24T16:31:32.444Z,34.78
2022-09-24T16:33:59.713Z,35.38
2022-09-24T16:36:26.479Z,32.22
2022-09-24T16:38:53.169Z,30.17
2022-09-24T16:41:19.846Z,27.45
2022-09-24T16:43:46.605Z,26.70
2022-09-24T16:46:17.896Z,26.02
2022-09-24T16:48:48.772Z,24.58
2022-09-24T16:51:16.179Z,26.45
2022-09-24T16:53:48.424Z,25.67
2022-09-24T16:56:17.228Z,22.10
2022-09-24T16:58:44.843Z,23.95
2022-09-24T17:01:13.716Z,20.08
2022-09-24T17:03:40.981Z,21.50
2022-09-24T17:06:07.925Z,21.50
2022-09-24T17:08:54.103Z,18.60
2022-09-24T17:11:21.972Z,16.73
2022-09-24T17:13:48.876Z,18.33
2022-09-24T17:16:15.574Z,17.15
2022-09-24T17:18:42.220Z,17.00
2022-09-24T17:21:09.941Z,14.00
2022-09-24T17:23:36.428Z,15.82
2022-09-24T17:26:07.175Z,15.00
2022-09-24T17:28:34.265Z,14.02
2022-09-24T17:31:01.077Z,14.23
2022-09-24T17:33:42.764Z,12.80
2022-09-24T17:36:11.190Z,13.98
2022-09-24T17:38:37.627Z,13.90
2022-09-24T17:41:08.101Z,12.38
2022-09-24T17:46:28.655Z,10.75
2022-09-24T17:48:56.184Z,11.63
2022-09-24T17:51:24.108Z,9.73
2022-09-24T17:53:51.780Z,9.32
2022-09-24T17:56:18.954Z,8.77
2022-09-24T17:58:46.986Z,8.70
2022-09-24T18:01:15.621Z,8.35
2022-09-24T18:03:42.191Z,10.05
2022-09-24T18:06:09.810Z,8.77
2022-09-24T18:08:39.369Z,7.47
2022-09-24T18:11:10.712Z,8.65
2022-09-24T18:13:37.536Z,8.50
2022-09-24T18:16:11.752Z,8.82
2022-09-24T18:18:38.631Z,7.75
2022-09-24T18:21:06.091Z,7.40
2022-09-24T18:23:34.448Z,6.68
2022-09-24T18:26:09.086Z,8.20
2022-09-24T18:28:35.597Z,7.90
2022-09-24T18:31:03.447Z,6.45
2022-09-24T18:33:29.911Z,5.85
2022-09-24T18:35:56.439Z,7.15
2022-09-24T18:38:22.828Z,6.00
2022-09-24T18:40:49.519Z,6.10
2022-09-24T18:43:15.983Z,5.93
2022-09-24T18:45:42.426Z,6.28
2022-09-24T18:48:08.966Z,6.35
2022-09-24T18:50:35.360Z,5.50
2022-09-24T18:53:01.738Z,6.15
2022-09-24T18:55:28.187Z,5.25
2022-09-24T18:57:54.630Z,5.85
2022-09-24T19:00:39.479Z,6.38
2022-09-24T19:03:05.957Z,6.03
2022-09-24T19:05:33.584Z,5.40
2022-09-24T19:08:00.030Z,5.70
2022-09-24T19:10:26.679Z,5.07
2022-09-24T19:12:55.283Z,5.10
2022-09-24T19:15:21.731Z,6.32
2022-09-24T19:17:48.993Z,4.90
2022-09-24T19:20:15.616Z,5.60
2022-09-24T19:22:43.602Z,5.53
2022-09-24T19:25:10.014Z,5.10
2022-09-24T19:27:36.463Z,6.60
2022-09-24T19:30:02.866Z,6.50
2022-09-24T19:32:29.336Z,5.72
2022-09-24T19:34:56.815Z,5.55
2022-09-24T19:37:23.297Z,5.50
2022-09-24T19:39:50.280Z,5.00
2022-09-24T19:42:16.759Z,5.18
2022-09-24T19:44:43.693Z,4.70
2022-09-24T19:47:10.260Z,5.10
2022-09-24T19:49:36.705Z,4.90
2022-09-24T19:52:04.829Z,5.68
2022-09-24T19:54:31.238Z,5.00
2022-09-24T19:56:57.643Z,4.97
2022-09-24T19:59:25.467Z,4.82
2022-09-24T20:01:52.702Z,4.85
2022-09-24T20:04:20.486Z,5.03
2022-09-24T20:06:47.110Z,4.70
2022-09-24T20:09:13.511Z,4.75
2022-09-24T20:11:40.074Z,5.00
2022-09-24T20:14:09.034Z,4.65
2022-09-24T20:16:36.022Z,5.00
2022-09-24T20:19:03.044Z,4.40
2022-09-24T20:21:32.100Z,4.45
2022-09-24T20:23:59.229Z,4.15
2022-09-24T20:26:44.550Z,5.00
2022-09-24T20:29:12.088Z,4.35
2022-09-24T20:31:42.482Z,5.00
2022-09-24T20:34:09.378Z,5.30
2022-09-24T20:36:36.483Z,4.53
2022-09-24T20:39:03.939Z,5.18
2022-09-24T20:41:30.338Z,5.15
2022-09-24T20:43:56.924Z,5.00
2022-09-24T20:46:25.226Z,4.82
2022-09-24T20:48:52.748Z,5.00
2022-09-24T20:51:20.582Z,4.63
2022-09-24T20:53:47.755Z,4.70
2022-09-24T20:56:14.587Z,4.90
2022-09-24T20:58:41.234Z,5.10
2022-09-24T21:01:07.948Z,4.75
2022-09-24T21:03:50.483Z,5.35
2022-09-24T21:06:18.197Z,4.97
2022-09-24T21:08:45.480Z,4.60
2022-09-24T21:11:13.079Z,4.60
2022-09-24T21:13:41.081Z,5.13
2022-09-24T21:16:08.221Z,5.18
2022-09-24T21:18:40.143Z,5.28
2022-09-24T21:21:08.452Z,5.20
2022-09-24T21:23:36.205Z,5.05
2022-09-24T21:26:18.318Z,5.53
2022-09-24T21:28:46.617Z,4.72
2022-09-24T21:31:14.017Z,5.05
2022-09-24T21:33:44.375Z,4.85
2022-09-24T21:36:11.990Z,5.18
2022-09-24T21:38:38.527Z,5.38
2022-09-24T21:41:08.421Z,4.68
2022-09-24T21:43:35.305Z,4.80
2022-09-24T21:46:03.244Z,5.07
2022-09-24T21:48:29.916Z,4.90
2022-09-24T21:51:06.492Z,5.18
2022-09-24T21:53:34.004Z,5.20
2022-09-24T21:56:00.707Z,5.13
2022-09-24T21:58:29.203Z,4.72
2022-09-24T22:00:56.542Z,5.28
2022-09-24T22:03:23.142Z,4.68
2022-09-24T22:05:49.558Z,4.97
2022-09-24T22:08:16.634Z,5.10
2022-09-24T22:10:44.066Z,4.55
2022-09-24T22:13:15.068Z,4.97
2022-09-24T22:15:43.751Z,4.70
2022-09-24T22:18:13.030Z,4.93
2022-09-24T22:20:43.068Z,4.90
2022-09-24T22:23:10.227Z,4.45
2022-09-24T22:25:36.838Z,4.90
2022-09-24T22:28:03.639Z,4.40
2022-09-24T22:30:31.313Z,4.55
2022-09-24T22:32:57.966Z,4.32
2022-09-24T22:35:53.649Z,5.00
2022-09-24T22:38:20.067Z,4.60
2022-09-24T22:40:46.645Z,4.15
2022-09-24T22:43:13.126Z,5.13
2022-09-24T22:45:39.672Z,4.80
2022-09-24T22:48:06.088Z,5.10
2022-09-24T22:50:32.485Z,4.80
2022-09-24T22:52:58.947Z,4.78
2022-09-24T22:55:25.385Z,4.57
2022-09-24T22:57:51.791Z,4.55
2022-09-24T23:00:18.938Z,4.60
2022-09-24T23:02:45.659Z,4.10
2022-09-24T23:05:13.579Z,5.05
2022-09-24T23:07:40.251Z,5.32
2022-09-24T23:10:07.843Z,4.40
2022-09-24T23:12:34.435Z,4.13
2022-09-24T23:15:00.922Z,4.75
2022-09-24T23:17:27.838Z,4.75
2022-09-24T23:19:54.448Z,5.25
2022-09-24T23:22:21.718Z,4.68
2022-09-24T23:24:49.339Z,4.50
2022-09-24T23:27:16.721Z,5.22
2022-09-24T23:29:43.672Z,4.95
2022-09-24T23:32:10.513Z,4.80
2022-09-24T23:34:37.004Z,4.60
2022-09-24T23:37:03.422Z,5.03
2022-09-24T23:39:29.823Z,4.32
2022-09-24T23:41:56.248Z,4.95
2022-09-24T23:44:22.694Z,4.32
2022-09-24T23:46:49.159Z,4.82
2022-09-24T23:49:15.961Z,4.88
2022-09-24T23:51:42.376Z,4.15
2022-09-24T23:54:08.814Z,4.53
2022-09-24T23:56:35.263Z,5.10
2022-09-24T23:59:01.721Z,5.20
